Burdaard, Netherlands
Current Conditions -  °F | °C
As of 7:55 AM on Friday 31 Oct 2014 (Local Time) from EHLW Reporting Station
Moderate Fog Moderate Fog  
Wind Chill: 52°   Ceiling: Unl
Heat Index: 52°   Visibility: 0.31mi
Dew Point: 52°   Wind: 7mph
Humidity: 100%   Direction: 180°S
Pressure: 30.12"   Gusts: NA
Location:  53.29°N, 5.88°E
Report Text: EHLW 310655Z AUTO 18006KT 0500 R23/1800 FG OVC000 11/11 Q1020 RED
Loading
Personal Weather Stations






























Interactive Weather Map
Tropical Storm Tracking
New forecast layout! Learn more

10-Day Weather Forecast

Advertisements
Track Severe Weather on mobile